Time;durP1;ratioP1;P1;durP2;ratioP2;P2;SDS_P1;SDS_P2;PMS_P1;PMS_P2;Temp;Humidity;BMP_temperature;BMP_pressure;BME280_temperature;BME280_humidity;BME280_pressure;Samples;Min_cycle;Max_cycle;Signal;HPM_P1;HPM_P2
2023/11/05 00:00:56;;;;;;;25.20;8.43;;;;;;;6.58;100.00;97793.86;4929405;58;1138491;-67
2023/11/05 00:06:03;;;;;;;15.33;7.33;;;;;;;6.59;100.00;97791.56;4953398;57;1139283;-68
2023/11/05 00:11:09;;;;;;;22.87;9.93;;;;;;;6.59;100.00;97763.51;4934486;57;1138510;-70
2023/11/05 00:16:15;;;;;;;16.23;7.87;;;;;;;6.60;100.00;97749.40;4934417;56;1138432;-70
2023/11/05 00:21:21;;;;;;;13.20;6.30;;;;;;;6.57;100.00;97747.61;4953697;57;1138750;-69
2023/11/05 00:26:26;;;;;;;18.42;6.55;;;;;;;6.56;100.00;97733.66;4940082;57;1138928;-70
2023/11/05 00:31:32;;;;;;;13.08;6.08;;;;;;;6.56;100.00;97727.09;4930612;57;1138908;-70
2023/11/05 00:36:38;;;;;;;14.10;6.80;;;;;;;6.59;100.00;97718.05;4973292;57;1138846;-70
2023/11/05 00:41:43;;;;;;;13.77;8.17;;;;;;;6.59;100.00;97711.48;5111160;56;1138810;-70
2023/11/05 00:46:49;;;;;;;15.17;6.97;;;;;;;6.61;100.00;97702.46;4954660;57;1139030;-71
2023/11/05 00:51:55;;;;;;;17.37;6.63;;;;;;;6.65;100.00;97697.22;4915452;58;1138748;-70
2023/11/05 00:57:00;;;;;;;10.20;6.63;;;;;;;6.67;100.00;97690.00;4930968;58;1139085;-71
2023/11/05 01:02:06;;;;;;;19.27;7.40;;;;;;;6.70;100.00;97696.25;4912553;58;1138743;-67
2023/11/05 01:07:12;;;;;;;9.25;5.80;;;;;;;6.72;100.00;97666.38;4912321;57;1136823;-69
2023/11/05 01:12:18;;;;;;;12.05;7.05;;;;;;;6.74;100.00;97645.50;4947174;57;1136625;-70
2023/11/05 01:17:24;;;;;;;14.90;6.20;;;;;;;6.81;100.00;97627.28;4978642;57;1139075;-70
2023/11/05 01:22:30;;;;;;;15.43;6.22;;;;;;;6.79;100.00;97616.13;4992203;57;1138775;-70
2023/11/05 01:27:36;;;;;;;12.45;6.53;;;;;;;6.75;100.00;97613.49;4940070;57;1139144;-71
2023/11/05 01:32:41;;;;;;;13.33;8.47;;;;;;;6.76;100.00;97638.28;4930857;57;1138878;-68
2023/11/05 01:37:47;;;;;;;23.83;10.83;;;;;;;6.80;100.00;97646.66;4872115;58;1138927;-70
2023/11/05 01:42:58;;;;;;;16.20;8.50;;;;;;;6.87;100.00;97662.92;4942831;57;1140942;-71
2023/11/05 01:48:04;;;;;;;16.97;8.93;;;;;;;6.92;100.00;97661.91;4931006;57;1138981;-70
2023/11/05 01:53:10;;;;;;;14.33;6.97;;;;;;;6.96;100.00;97671.11;4911537;59;1138819;-67
2023/11/05 01:58:17;;;;;;;14.93;6.67;;;;;;;6.97;100.00;97659.62;4910548;57;1138894;-70
2023/11/05 02:03:22;;;;;;;13.60;5.50;;;;;;;6.98;100.00;97645.98;4930985;57;1139006;-70
2023/11/05 02:08:28;;;;;;;14.87;6.85;;;;;;;6.99;100.00;97625.30;4912150;59;1139044;-70
2023/11/05 02:13:49;;;;;;;20.47;7.97;;;;;;;7.01;100.00;97635.15;4979442;57;1139048;-68
2023/11/05 02:18:55;;;;;;;11.90;6.30;;;;;;;7.07;100.00;97638.41;4992289;57;1139331;-68
2023/11/05 02:24:01;;;;;;;18.10;6.93;;;;;;;7.11;100.00;97628.38;4965818;57;1138794;-70
2023/11/05 02:29:06;;;;;;;13.33;5.43;;;;;;;7.10;100.00;97620.99;4911823;57;1136625;-71
2023/11/05 02:34:12;;;;;;;13.27;4.60;;;;;;;7.06;100.00;97620.50;4910725;57;1139026;-69
2023/11/05 02:39:18;;;;;;;9.10;5.20;;;;;;;7.09;100.00;97616.72;4930442;58;1138958;-68
2023/11/05 02:44:23;;;;;;;15.87;6.83;;;;;;;7.09;100.00;97604.90;4916191;56;1136408;-68
2023/11/05 02:49:29;;;;;;;19.10;7.97;;;;;;;7.09;100.00;97603.59;4915958;57;1138570;-68
2023/11/05 02:54:34;;;;;;;11.95;5.75;;;;;;;7.08;100.00;97583.55;4935457;56;1136787;-68
2023/11/05 02:59:40;;;;;;;15.27;5.77;;;;;;;7.07;100.00;97584.53;4915896;57;1138718;-68
2023/11/05 03:04:45;;;;;;;17.42;6.92;;;;;;;7.09;100.00;97584.37;4915992;56;1138824;-71
2023/11/05 03:09:51;;;;;;;14.30;5.67;;;;;;;7.19;100.00;97588.92;4935160;56;1139157;-68
2023/11/05 03:14:57;;;;;;;18.17;7.80;;;;;;;7.19;100.00;97588.92;4911448;58;1138866;-70
2023/11/05 03:20:08;;;;;;;9.03;4.93;;;;;;;7.19;100.00;97575.78;4966707;57;1138809;-69
2023/11/05 03:25:11;;;;;;;10.83;5.07;;;;;;;7.18;100.00;97561.82;5011879;57;1136634;-69
2023/11/05 03:30:18;;;;;;;8.33;4.83;;;;;;;7.17;100.00;97558.90;4915565;58;1138664;-68
2023/11/05 03:35:24;;;;;;;10.53;5.30;;;;;;;7.22;100.00;97549.98;4991453;57;1136816;-69
2023/11/05 03:40:30;;;;;;;8.33;5.10;;;;;;;7.27;100.00;97531.09;4931837;58;1138782;-71
2023/11/05 03:45:35;;;;;;;9.30;4.55;;;;;;;7.32;100.00;97545.36;4911739;58;1136756;-68
2023/11/05 03:50:41;;;;;;;8.78;4.50;;;;;;;7.33;100.00;97540.93;4923469;58;1136813;-68
2023/11/05 03:55:47;;;;;;;6.60;4.53;;;;;;;7.31;100.00;97528.45;4949660;58;1134617;-68
2023/11/05 04:00:52;;;;;;;5.23;3.60;;;;;;;7.31;100.00;97518.75;4930040;58;1136887;-68
2023/11/05 04:05:58;;;;;;;9.43;3.43;;;;;;;7.35;100.00;97519.20;4983279;56;1136530;-69
2023/11/05 04:11:04;;;;;;;10.80;4.30;;;;;;;7.40;100.00;97515.08;4946380;57;1136611;-69
2023/11/05 04:16:10;;;;;;;15.13;6.23;;;;;;;7.45;100.00;97526.89;4972079;57;1138671;-70
2023/11/05 04:21:16;;;;;;;5.77;4.30;;;;;;;7.46;100.00;97537.25;4940871;57;1138965;-70
2023/11/05 04:26:22;;;;;;;5.92;4.65;;;;;;;7.44;100.00;97531.83;4990507;57;1136881;-69
2023/11/05 04:31:28;;;;;;;7.97;3.62;;;;;;;7.47;100.00;97515.72;4969966;57;1137028;-68
2023/11/05 04:36:40;;;;;;;6.72;4.55;;;;;;;7.47;100.00;97507.33;4961467;57;1136580;-68
2023/11/05 04:41:45;;;;;;;9.47;4.53;;;;;;;7.47;100.00;97490.73;5003037;57;1136780;-68
2023/11/05 04:46:51;;;;;;;7.87;4.55;;;;;;;7.46;100.00;97512.27;5004330;57;1136883;-68
2023/11/05 04:51:56;;;;;;;8.03;4.70;;;;;;;7.49;100.00;97521.09;4949069;57;1136863;-71
2023/11/05 04:57:02;;;;;;;5.13;3.63;;;;;;;7.49;100.00;97532.93;4969092;57;1137097;-68
2023/11/05 05:02:11;;;;;;;10.70;4.93;;;;;;;7.50;100.00;97534.57;5024157;57;1136982;-69
2023/11/05 05:07:16;;;;;;;8.50;4.97;;;;;;;7.51;100.00;97536.21;4915557;58;1138653;-70
2023/11/05 05:12:23;;;;;;;13.00;4.40;;;;;;;7.51;100.00;97532.27;4920591;58;1136674;-70
2023/11/05 05:17:29;;;;;;;6.67;3.50;;;;;;;7.48;100.00;97514.23;5011172;57;1138930;-70
2023/11/05 05:22:35;;;;;;;4.97;3.12;;;;;;;7.50;100.00;97503.02;4968999;57;1137077;-69
2023/11/05 05:27:40;;;;;;;8.77;3.63;;;;;;;7.55;100.00;97509.08;4882660;58;1136726;-70
2023/11/05 05:32:46;;;;;;;6.75;3.02;;;;;;;7.60;100.00;97504.12;4916597;57;1136738;-69
2023/11/05 05:37:52;;;;;;;8.80;3.97;;;;;;;7.62;100.00;97514.80;4931111;57;1136803;-69
2023/11/05 05:42:58;;;;;;;7.47;2.85;;;;;;;7.67;100.00;97524.78;4911653;57;1136967;-68
2023/11/05 05:48:04;;;;;;;3.20;2.20;;;;;;;7.69;100.00;97516.22;4991478;57;1136828;-69
2023/11/05 05:53:11;;;;;;;3.03;2.57;;;;;;;7.73;100.00;97509.63;5015923;56;1136885;-69
2023/11/05 05:58:19;;;;;;;5.73;2.77;;;;;;;7.80;100.00;97513.19;4996328;56;1136773;-70
2023/11/05 06:03:23;;;;;;;4.67;2.53;;;;;;;7.87;100.00;97502.79;4996216;57;1137069;-69
2023/11/05 06:08:29;;;;;;;2.12;1.82;;;;;;;7.91;100.00;97500.95;4934255;58;1138127;-68
2023/11/05 06:13:37;;;;;;;5.47;1.92;;;;;;;7.92;100.00;97496.02;4915081;57;1136849;-70
2023/11/05 06:18:42;;;;;;;3.20;1.90;;;;;;;7.94;100.00;97481.38;4905214;58;1136927;-68
2023/11/05 06:23:48;;;;;;;2.95;2.30;;;;;;;7.98;100.00;97466.84;4952043;57;1136746;-69
2023/11/05 06:28:54;;;;;;;4.00;2.27;;;;;;;7.99;100.00;97474.56;4931012;58;1136745;-70
2023/11/05 06:33:59;;;;;;;8.07;2.37;;;;;;;7.99;100.00;97482.95;4911717;58;1136671;-68
2023/11/05 06:39:05;;;;;;;6.17;2.10;;;;;;;7.97;100.00;97467.34;4911866;58;1136810;-69
2023/11/05 06:44:11;;;;;;;2.73;1.93;;;;;;;7.96;100.00;97465.70;4930762;58;1137011;-71
2023/11/05 06:49:17;;;;;;;4.23;2.30;;;;;;;7.97;100.00;97458.62;4994775;56;1136869;-68
2023/11/05 06:54:23;;;;;;;20.13;10.37;;;;;;;7.99;100.00;97443.48;4935195;57;1136875;-68
2023/11/05 06:59:28;;;;;;;14.13;4.40;;;;;;;8.02;100.00;97439.19;4931039;57;1141141;-68
2023/11/05 07:04:34;;;;;;;6.55;4.30;;;;;;;8.03;100.00;97445.59;4897293;57;1138860;-71
2023/11/05 07:09:39;;;;;;;3.67;2.65;;;;;;;8.08;100.00;97452.96;4929608;57;1136968;-67
2023/11/05 07:14:45;;;;;;;12.78;5.65;;;;;;;8.12;100.00;97449.77;4925476;58;1136860;-70
2023/11/05 07:19:51;;;;;;;9.33;4.63;;;;;;;8.19;100.00;97460.42;5008398;57;1138798;-68
2023/11/05 07:24:57;;;;;;;10.20;4.47;;;;;;;8.26;100.00;97461.82;4906247;58;1136851;-70
2023/11/05 07:30:03;;;;;;;10.90;4.53;;;;;;;8.30;100.00;97473.64;4969332;57;1138708;-69
2023/11/05 07:35:09;;;;;;;9.23;4.22;;;;;;;8.31;100.00;97470.01;5010957;57;1138959;-70
2023/11/05 07:40:15;;;;;;;5.47;3.50;;;;;;;8.34;100.00;97481.54;4916539;57;1136463;-71
2023/11/05 07:45:20;;;;;;;11.40;4.23;;;;;;;8.37;100.00;97474.11;4919412;58;1136401;-71
2023/11/05 07:50:26;;;;;;;4.40;2.70;;;;;;;8.42;100.00;97463.83;5000518;57;1138725;-70
2023/11/05 07:55:32;;;;;;;7.37;2.90;;;;;;;8.49;100.00;97469.70;5011339;57;1136677;-71
2023/11/05 08:00:39;;;;;;;5.27;2.90;;;;;;;8.54;100.00;97466.05;4992336;56;1136787;-72
2023/11/05 08:05:44;;;;;;;5.87;4.00;;;;;;;8.58;100.00;97473.38;4912706;58;1137005;-70
2023/11/05 08:10:50;;;;;;;4.43;2.50;;;;;;;8.62;100.00;97460.17;4931754;57;1136665;-69
2023/11/05 08:15:55;;;;;;;6.67;3.53;;;;;;;8.68;100.00;97449.42;4927661;57;1136732;-69
2023/11/05 08:21:02;;;;;;;4.47;2.50;;;;;;;8.74;100.00;97449.99;4910576;58;1136964;-71
2023/11/05 08:26:08;;;;;;;14.73;6.47;;;;;;;8.80;100.00;97451.41;4930941;58;1137206;-69
2023/11/05 08:31:14;;;;;;;2.73;2.50;;;;;;;8.88;100.00;97445.71;4876393;58;1138510;-69
2023/11/05 08:36:19;;;;;;;5.60;2.40;;;;;;;8.94;100.00;97464.76;4911888;58;1136607;-68
2023/11/05 08:41:26;;;;;;;3.64;2.54;;;;;;;9.02;100.00;97453.60;4948968;58;1136381;-70
2023/11/05 08:46:32;;;;;;;4.42;2.25;;;;;;;9.14;100.00;97448.70;4912322;57;1137015;-71
2023/11/05 08:51:37;;;;;;;5.58;2.55;;;;;;;9.28;100.00;97447.02;4912634;57;1136418;-72
2023/11/05 08:56:43;;;;;;;3.17;1.60;;;;;;;9.43;100.00;97455.72;4913187;57;1136926;-68
2023/11/05 09:01:49;;;;;;;4.27;2.60;;;;;;;9.61;100.00;97449.52;4884828;57;1136719;-71
2023/11/05 09:06:55;;;;;;;3.63;3.17;;;;;;;9.77;100.00;97449.27;4925341;57;1136689;-68
2023/11/05 09:12:02;;;;;;;3.70;2.53;;;;;;;9.87;100.00;97459.50;4969805;57;1136333;-71
2023/11/05 09:17:08;;;;;;;6.00;2.93;;;;;;;9.95;100.00;97454.58;4898539;58;1136753;-70
2023/11/05 09:22:14;;;;;;;1.60;1.50;;;;;;;9.98;100.00;97443.14;4967715;57;1136806;-69
2023/11/05 09:27:20;;;;;;;4.00;3.30;;;;;;;10.03;100.00;97435.98;4911602;56;1136845;-72
2023/11/05 09:32:26;;;;;;;6.07;2.97;;;;;;;10.09;100.00;97448.41;4930770;57;1138700;-68
2023/11/05 09:37:31;;;;;;;7.57;4.27;;;;;;;10.14;100.00;97440.23;4940574;57;1138987;-72
2023/11/05 09:43:02;;;;;;;9.00;3.20;;;;;;;10.20;100.00;97436.87;5022341;57;1138825;-67
2023/11/05 09:48:15;;;;;;;3.37;2.60;;;;;;;10.29;100.00;97438.03;4990325;57;1139024;-71
2023/11/05 09:53:18;;;;;;;7.80;2.10;;;;;;;10.36;100.00;97430.98;5009069;57;1138891;-69
2023/11/05 09:58:23;;;;;;;3.10;2.80;;;;;;;10.38;100.00;97409.97;5005077;56;1138767;-70
2023/11/05 10:03:29;;;;;;;5.07;2.47;;;;;;;10.45;100.00;97411.32;4996507;57;1138616;-71
2023/11/05 10:08:35;;;;;;;8.28;5.05;;;;;;;10.49;100.00;97413.39;4966687;57;1138680;-71
2023/11/05 10:13:41;;;;;;;5.40;2.90;;;;;;;10.55;100.00;97405.17;4918415;57;1138623;-70
2023/11/05 10:18:50;;;;;;;4.70;3.33;;;;;;;10.60;100.00;97400.13;4923108;58;1138913;-71
2023/11/05 10:23:56;;;;;;;5.27;3.00;;;;;;;10.72;100.00;97399.88;5001338;57;1138674;-68
2023/11/05 10:29:05;;;;;;;5.30;4.00;;;;;;;10.84;100.00;97397.01;4990891;56;1138593;-71
2023/11/05 10:34:11;;;;;;;12.50;5.00;;;;;;;10.95;100.00;97393.48;4991616;57;1138445;-68
2023/11/05 10:39:16;;;;;;;4.63;3.43;;;;;;;11.02;100.00;97393.80;4949933;57;1140939;-68
2023/11/05 10:44:24;;;;;;;7.40;3.77;;;;;;;11.07;100.00;97391.89;4974292;57;1138789;-68
2023/11/05 10:49:30;;;;;;;8.67;3.90;;;;;;;11.13;100.00;97389.28;4995417;57;1138762;-73
2023/11/05 10:54:39;;;;;;;5.43;4.73;;;;;;;11.19;100.00;97387.15;5010157;57;1138957;-68
2023/11/05 10:59:45;;;;;;;2.67;2.17;;;;;;;11.30;100.00;97380.48;4995841;56;1138693;-68
2023/11/05 11:04:51;;;;;;;11.48;4.40;;;;;;;11.40;100.00;97374.79;5007426;56;1138872;-68
2023/11/05 11:09:56;;;;;;;5.43;3.90;;;;;;;11.49;100.00;97375.71;5113166;57;1141045;-68
2023/11/05 11:15:06;;;;;;;21.00;6.20;;;;;;;11.62;100.00;97359.84;4989469;56;1138824;-70
2023/11/05 11:20:16;;;;;;;16.93;7.63;;;;;;;11.73;100.00;97347.85;5064375;56;1140866;-68
2023/11/05 11:25:21;;;;;;;16.40;8.57;;;;;;;11.83;100.00;97346.14;5034099;57;1140974;-69
2023/11/05 11:30:27;;;;;;;29.47;16.50;;;;;;;11.86;100.00;97348.39;5093483;56;1141100;-70
2023/11/05 11:35:33;;;;;;;10.17;6.17;;;;;;;11.90;100.00;97350.94;5011637;57;1142930;-72
2023/11/05 11:40:39;;;;;;;31.17;18.50;;;;;;;11.99;100.00;97353.67;5012644;57;1146783;-69
2023/11/05 11:45:46;;;;;;;74.30;40.17;;;;;;;12.07;100.00;97355.31;5033036;57;1142890;-71
2023/11/05 11:51:01;;;;;;;7.40;4.60;;;;;;;12.12;100.00;97347.03;5006514;56;1143101;-71
2023/11/05 11:56:05;;;;;;;13.78;3.98;;;;;;;12.22;100.00;97346.09;5007751;57;1139119;-71
2023/11/05 12:01:16;;;;;;;34.87;10.93;;;;;;;12.25;100.00;97342.21;5033575;56;1141064;-69
2023/11/05 12:06:21;;;;;;;51.80;25.80;;;;;;;12.31;100.00;97334.27;5001941;57;1142965;-72
2023/11/05 12:11:32;;;;;;;27.33;9.40;;;;;;;12.31;100.00;97334.27;4966090;57;1143020;-68
2023/11/05 12:16:38;;;;;;;16.27;7.20;;;;;;;12.50;100.00;97349.00;4996785;58;1140837;-71
2023/11/05 12:21:45;;;;;;;5.28;3.50;;;;;;;12.53;100.00;97344.58;4997983;58;1141130;-71
2023/11/05 12:26:51;;;;;;;4.67;3.50;;;;;;;12.57;100.00;97333.36;4990268;58;1138990;-69
2023/11/05 12:31:57;;;;;;;4.77;3.30;;;;;;;12.69;100.00;97340.95;4990844;58;1138997;-70
2023/11/05 12:37:02;;;;;;;6.23;3.10;;;;;;;12.79;100.00;97343.70;5001617;57;1138833;-71
2023/11/05 12:42:09;;;;;;;6.57;4.57;;;;;;;12.84;100.00;97344.67;4965834;56;1138756;-70
2023/11/05 12:47:15;;;;;;;6.20;2.97;;;;;;;12.90;100.00;97339.86;4991426;57;1138712;-70
2023/11/05 12:52:20;;;;;;;3.43;3.13;;;;;;;12.93;100.00;97339.45;5004169;57;1139213;-69
2023/11/05 12:57:27;;;;;;;6.70;4.77;;;;;;;12.95;100.00;97338.72;4980131;57;1138942;-72
2023/11/05 13:02:33;;;;;;;24.47;13.80;;;;;;;13.04;100.00;97336.11;4905882;58;1138808;-71
2023/11/05 13:07:39;;;;;;;49.20;15.43;;;;;;;13.19;100.00;97345.66;4976671;57;1143036;-71
2023/11/05 13:12:46;;;;;;;6.37;4.00;;;;;;;13.17;100.00;97347.19;4955668;57;1142816;-69
2023/11/05 13:17:51;;;;;;;19.47;6.53;;;;;;;13.18;100.00;97346.68;5003454;57;1139036;-70
2023/11/05 13:22:57;;;;;;;41.03;19.60;;;;;;;13.21;100.00;97347.59;5015725;56;1141029;-71
2023/11/05 13:28:03;;;;;;;11.87;4.47;;;;;;;13.32;100.00;97354.87;5033727;57;1143188;-71
2023/11/05 13:33:08;;;;;;;10.63;3.87;;;;;;;13.52;100.00;97356.08;5015325;57;1140915;-70
2023/11/05 13:38:14;;;;;;;6.03;3.30;;;;;;;13.56;100.00;97366.58;5059330;56;1140901;-71
2023/11/05 13:43:21;;;;;;;6.17;2.53;;;;;;;13.49;100.00;97374.56;5119193;56;1139348;-70
2023/11/05 13:48:26;;;;;;;5.53;3.13;;;;;;;13.51;100.00;97368.53;5087234;56;1138885;-72
2023/11/05 13:53:32;;;;;;;54.77;15.50;;;;;;;13.39;100.00;97378.22;5051977;56;1138897;-69
2023/11/05 13:58:38;;;;;;;10.28;4.37;;;;;;;12.84;100.00;97363.75;5027076;56;1143068;-70
2023/11/05 14:03:46;;;;;;;10.35;5.30;;;;;;;12.84;100.00;97363.75;5037566;56;1141116;-73
2023/11/05 14:08:52;;;;;;;35.37;13.37;;;;;;;12.75;100.00;97384.91;5087957;56;1140907;-70
2023/11/05 14:13:58;;;;;;;30.57;12.43;;;;;;;12.66;100.00;97387.80;4993266;56;1143322;-70
2023/11/05 14:19:07;;;;;;;33.93;16.17;;;;;;;12.53;100.00;97393.63;5045547;56;1142927;-68
2023/11/05 14:24:12;;;;;;;21.53;11.07;;;;;;;12.43;100.00;97384.78;5078063;56;1142848;-72
2023/11/05 14:29:20;;;;;;;14.40;7.17;;;;;;;12.31;100.00;97393.07;5077220;57;1143081;-69
2023/11/05 14:34:25;;;;;;;28.07;13.00;;;;;;;12.19;100.00;97396.86;5053614;56;1140835;-68
2023/11/05 14:39:31;;;;;;;16.27;7.90;;;;;;;12.11;100.00;97416.92;4975333;57;1143116;-72
2023/11/05 14:44:37;;;;;;;29.85;13.35;;;;;;;12.08;100.00;97419.97;4941395;57;1140803;-68
2023/11/05 14:49:43;;;;;;;19.95;8.73;;;;;;;12.03;100.00;97419.79;4910825;57;1143075;-72
2023/11/05 14:54:49;;;;;;;39.90;15.68;;;;;;;11.97;100.00;97416.11;4943744;57;1141144;-71
2023/11/05 14:59:54;;;;;;;20.73;8.07;;;;;;;11.93;100.00;97438.72;4920341;57;1142920;-69
2023/11/05 15:05:00;;;;;;;17.13;7.93;;;;;;;11.88;100.00;97439.03;5020730;57;1140840;-69
2023/11/05 15:10:06;;;;;;;56.43;17.93;;;;;;;11.87;100.00;97441.38;4922762;58;1141029;-70
2023/11/05 15:15:12;;;;;;;355.87;148.20;;;;;;;11.87;100.00;97448.00;4929206;58;1142954;-71
2023/11/05 15:20:18;;;;;;;74.33;28.20;;;;;;;11.84;100.00;97445.74;4924474;57;1147182;-68
2023/11/05 15:25:23;;;;;;;51.27;19.83;;;;;;;11.79;100.00;97456.93;4943569;57;1143160;-68
2023/11/05 15:30:29;;;;;;;82.13;26.17;;;;;;;11.72;100.00;97455.27;4983237;57;1143007;-69
2023/11/05 15:35:35;;;;;;;22.17;9.20;;;;;;;11.70;100.00;97464.73;4963629;57;1143236;-69
2023/11/05 15:40:40;;;;;;;98.27;41.70;;;;;;;11.68;100.00;97459.33;4919425;58;1141249;-70
2023/11/05 15:45:47;;;;;;;236.35;84.75;;;;;;;11.63;100.00;97453.30;4948844;58;1142832;-69
2023/11/05 15:50:54;;;;;;;68.17;20.72;;;;;;;11.60;100.00;97461.16;4932237;58;1145048;-68
2023/11/05 15:56:00;;;;;;;52.23;22.67;;;;;;;11.58;100.00;97461.86;4947148;58;1142979;-68
2023/11/05 16:01:05;;;;;;;149.60;88.10;;;;;;;11.60;100.00;97462.48;4953305;57;1143053;-69
2023/11/05 16:06:11;;;;;;;50.67;29.60;;;;;;;11.56;100.00;97468.37;4933272;57;1145144;-71
2023/11/05 16:11:17;;;;;;;74.83;31.77;;;;;;;11.54;100.00;97469.89;4933527;57;1143098;-71
2023/11/05 16:16:23;;;;;;;17.27;8.00;;;;;;;11.51;100.00;97472.93;4953016;57;1143160;-69
2023/11/05 16:21:29;;;;;;;36.53;13.37;;;;;;;11.49;100.00;97482.08;4999118;57;1140858;-72
2023/11/05 16:26:35;;;;;;;33.33;18.37;;;;;;;11.46;100.00;97482.47;4995996;57;1142954;-70
2023/11/05 16:31:40;;;;;;;60.75;29.50;;;;;;;11.45;100.00;97489.62;5014208;57;1143223;-68
2023/11/05 16:36:46;;;;;;;32.73;15.35;;;;;;;11.44;100.00;97493.28;5014099;56;1143216;-71
2023/11/05 16:41:52;;;;;;;46.63;20.97;;;;;;;11.42;100.00;97495.81;4934543;57;1143021;-72
2023/11/05 16:46:58;;;;;;;36.90;15.87;;;;;;;11.42;100.00;97502.42;4929610;57;1142960;-71
2023/11/05 16:52:04;;;;;;;20.90;11.80;;;;;;;11.42;100.00;97507.72;4925355;57;1142984;-69
2023/11/05 16:57:09;;;;;;;16.70;9.47;;;;;;;11.41;100.00;97510.88;4959771;57;1143051;-72
2023/11/05 17:02:15;;;;;;;8.63;6.33;;;;;;;11.41;100.00;97527.25;4933463;57;1140870;-71
2023/11/05 17:07:20;;;;;;;12.23;5.30;;;;;;;11.39;100.00;97536.70;5035406;57;1138871;-68
2023/11/05 17:12:26;;;;;;;10.20;7.13;;;;;;;11.36;100.00;97535.77;4926950;58;1141013;-72
2023/11/05 17:17:34;;;;;;;18.60;10.00;;;;;;;11.31;100.00;97543.47;4959285;57;1140933;-68
2023/11/05 17:22:39;;;;;;;19.92;12.30;;;;;;;11.28;100.00;97546.03;4947137;57;1143205;-71
2023/11/05 17:27:47;;;;;;;77.35;37.98;;;;;;;11.28;100.00;97555.80;5006352;57;1143048;-70
2023/11/05 17:32:53;;;;;;;69.82;32.85;;;;;;;11.27;100.00;97560.27;4886640;58;1143172;-71
2023/11/05 17:37:58;;;;;;;64.67;28.60;;;;;;;11.33;100.00;97565.27;4976765;56;1143075;-72
2023/11/05 17:43:04;;;;;;;42.50;20.47;;;;;;;11.42;100.00;97558.81;4914847;58;1142861;-72
2023/11/05 17:48:10;;;;;;;27.57;15.77;;;;;;;11.46;100.00;97557.38;4942904;58;1142995;-72
2023/11/05 17:53:16;;;;;;;32.97;17.07;;;;;;;11.45;100.00;97566.88;4995623;57;1142830;-68
2023/11/05 17:58:22;;;;;;;37.43;19.47;;;;;;;11.45;100.00;97571.66;4991877;56;1143028;-69
2023/11/05 18:03:27;;;;;;;19.93;13.50;;;;;;;11.43;100.00;97575.51;4954078;57;1142958;-71
2023/11/05 18:08:33;;;;;;;32.03;14.17;;;;;;;11.38;100.00;97573.95;4951590;57;1143107;-70
2023/11/05 18:13:39;;;;;;;20.73;8.70;;;;;;;11.28;100.00;97579.10;4957542;57;1142961;-71
2023/11/05 18:18:45;;;;;;;23.55;8.95;;;;;;;11.27;100.00;97585.91;4966462;57;1141341;-68
2023/11/05 18:23:50;;;;;;;21.73;9.75;;;;;;;11.18;100.00;97593.67;4964804;57;1140870;-69
2023/11/05 18:28:56;;;;;;;25.08;11.83;;;;;;;11.09;100.00;97602.27;5019190;56;1140965;-68
2023/11/05 18:34:08;;;;;;;25.40;9.63;;;;;;;11.04;100.00;97603.85;5038945;57;1143071;-70
2023/11/05 18:39:09;;;;;;;42.40;18.57;;;;;;;10.98;100.00;97604.14;4949598;57;1140720;-72
2023/11/05 18:44:16;;;;;;;34.67;15.30;;;;;;;11.01;100.00;97610.84;4905393;58;1143003;-69
2023/11/05 18:49:22;;;;;;;52.80;20.80;;;;;;;11.04;100.00;97617.08;4936812;58;1142964;-72
2023/11/05 18:54:28;;;;;;;40.77;13.73;;;;;;;11.03;100.00;97622.05;4826406;58;1142874;-70
2023/11/05 18:59:34;;;;;;;32.20;12.57;;;;;;;11.00;100.00;97626.42;4872758;58;1143229;-72
2023/11/05 19:04:43;;;;;;;25.10;10.03;;;;;;;10.97;100.00;97630.77;4924198;57;1143281;-71
2023/11/05 19:09:48;;;;;;;15.90;7.97;;;;;;;10.90;100.00;97643.42;4936946;58;1143287;-70
2023/11/05 19:14:54;;;;;;;12.73;7.12;;;;;;;10.87;100.00;97650.91;4861504;57;1141195;-71
2023/11/05 19:19:59;;;;;;;15.97;5.67;;;;;;;10.81;100.00;97653.83;4909058;57;1140701;-70
2023/11/05 19:25:07;;;;;;;14.83;5.97;;;;;;;10.81;100.00;97658.30;5020215;57;1140952;-68
2023/11/05 19:30:15;;;;;;;13.97;7.00;;;;;;;10.78;100.00;97666.10;5025874;56;1140853;-69
2023/11/05 19:35:21;;;;;;;12.23;6.13;;;;;;;10.78;100.00;97678.00;4971460;58;1140798;-69
2023/11/05 19:40:26;;;;;;;23.27;6.63;;;;;;;10.79;100.00;97676.17;5007022;57;1140846;-68
2023/11/05 19:45:32;;;;;;;37.43;11.20;;;;;;;10.82;100.00;97681.91;4963015;57;1141257;-70
2023/11/05 19:50:39;;;;;;;16.43;5.63;;;;;;;10.83;100.00;97690.66;4925816;57;1143013;-71
2023/11/05 20:01:01;;;;;;;10.90;5.80;;;;;;;10.88;100.00;97696.99;5306814;55;47215;-68
2023/11/05 20:06:06;;;;;;;9.97;5.50;;;;;;;10.87;100.00;97707.76;5113562;56;1136902;-70
2023/11/05 20:11:14;;;;;;;8.90;4.53;;;;;;;10.83;100.00;97702.05;5059938;56;1139030;-67
2023/11/05 20:16:21;;;;;;;12.10;5.57;;;;;;;10.88;100.00;97716.01;5000108;57;1138857;-70
2023/11/05 20:21:26;;;;;;;8.27;5.40;;;;;;;10.85;100.00;97719.84;4983167;57;1140889;-70
2023/11/05 20:26:32;;;;;;;12.37;6.50;;;;;;;10.81;100.00;97721.75;4983100;57;1138705;-69
2023/11/05 20:31:39;;;;;;;13.37;6.17;;;;;;;10.76;100.00;97727.59;5007695;57;1140759;-70
2023/11/05 20:36:45;;;;;;;8.07;4.50;;;;;;;10.76;100.00;97738.67;4916873;57;1140547;-69
2023/11/05 20:41:51;;;;;;;5.30;3.98;;;;;;;10.75;100.00;97750.25;5006037;56;1138762;-69
2023/11/05 20:46:56;;;;;;;8.20;3.90;;;;;;;10.75;100.00;97749.75;5101160;55;1139010;-67
2023/11/05 20:52:02;;;;;;;7.07;3.53;;;;;;;10.75;100.00;97755.03;5137319;55;1139024;-70
2023/11/05 20:57:08;;;;;;;6.60;3.37;;;;;;;10.75;100.00;97768.25;5120567;56;1139053;-73
2023/11/05 21:02:13;;;;;;;7.43;3.10;;;;;;;10.76;100.00;97775.18;5157247;55;1139402;-66
2023/11/05 21:07:19;;;;;;;8.83;3.30;;;;;;;10.76;100.00;97769.07;5221780;55;1138968;-69
2023/11/05 21:12:25;;;;;;;4.50;2.75;;;;;;;10.78;100.00;97781.10;5219323;55;1182952;-70
2023/11/05 21:17:31;;;;;;;9.77;3.37;;;;;;;10.80;100.00;97785.70;5236055;55;1138753;-70
2023/11/05 21:22:41;;;;;;;5.87;3.50;;;;;;;10.80;100.00;97790.17;5210166;55;1138777;-69
2023/11/05 21:27:44;;;;;;;5.17;2.83;;;;;;;10.79;100.00;97801.75;5195346;55;1138826;-77
2023/11/05 21:32:50;;;;;;;5.47;2.08;;;;;;;10.81;100.00;97801.06;5140290;55;1138776;-75
2023/11/05 21:37:56;;;;;;;3.10;2.15;;;;;;;10.81;100.00;97811.64;5238685;55;1139065;-69
2023/11/05 21:43:04;;;;;;;2.77;1.80;;;;;;;10.80;100.00;97813.97;5218301;55;1241066;-73
2023/11/05 21:48:09;;;;;;;3.97;2.17;;;;;;;10.81;100.00;97816.42;5220033;55;1139658;-76
2023/11/05 21:53:15;;;;;;;3.40;2.47;;;;;;;10.80;100.00;97831.97;5239014;55;1233971;-71
2023/11/05 21:58:21;;;;;;;5.57;2.23;;;;;;;10.79;100.00;97836.94;5217934;55;1244626;-71
2023/11/05 22:03:26;;;;;;;4.53;2.73;;;;;;;10.79;100.00;97852.80;5192712;55;1242091;-71
2023/11/05 22:08:32;;;;;;;5.70;3.00;;;;;;;10.76;100.00;97851.84;5228048;55;1139411;-72
2023/11/05 22:13:38;;;;;;;7.77;2.33;;;;;;;10.76;100.00;97859.77;5212755;55;1242586;-69
2023/11/05 22:18:45;;;;;;;10.10;2.50;;;;;;;10.74;100.00;97867.06;5211495;55;1237994;-72
2023/11/05 22:23:51;;;;;;;3.40;2.40;;;;;;;10.74;100.00;97874.18;5166334;55;1247964;-74
2023/11/05 22:28:56;;;;;;;3.72;1.92;;;;;;;10.75;100.00;97882.43;5146532;55;1250569;-71
2023/11/05 22:34:02;;;;;;;4.63;2.03;;;;;;;10.74;100.00;97880.79;5124457;56;1248205;-77
2023/11/05 22:39:07;;;;;;;4.03;1.80;;;;;;;10.72;100.00;97897.33;5167363;55;1245289;-74
2023/11/05 22:44:13;;;;;;;4.77;2.20;;;;;;;10.70;100.00;97914.69;5186391;55;1253601;-71
2023/11/05 22:49:18;;;;;;;6.17;1.67;;;;;;;10.67;100.00;97907.66;5212165;55;1251373;-73
2023/11/05 22:54:24;;;;;;;2.30;2.10;;;;;;;10.67;100.00;97922.19;5212732;55;1253453;-74
2023/11/05 22:59:30;;;;;;;4.97;1.20;;;;;;;10.66;100.00;97926.66;5221448;55;1138961;-70
2023/11/05 23:04:35;;;;;;;1.40;1.30;;;;;;;10.64;100.00;97935.27;5210107;55;1138665;-72
2023/11/05 23:09:44;;;;;;;3.03;1.33;;;;;;;10.66;100.00;97934.59;5209488;55;1139041;-73